Time;durP1;ratioP1;P1;durP2;ratioP2;P2;SDS_P1;SDS_P2;PMS_P1;PMS_P2;Temp;Humidity;BMP_temperature;BMP_pressure;BME280_temperature;BME280_humidity;BME280_pressure;Samples;Min_cycle;Max_cycle;Signal;HPM_P1;HPM_P2
2021/07/21 00:00:53;;;;;;;24.50;15.97;;;17.20;93.50;;;;;;5047684;28;20441;-67
2021/07/21 00:03:21;;;;;;;24.40;16.20;;;17.10;93.60;;;;;;5050826;28;20499;-66
2021/07/21 00:05:48;;;;;;;24.67;15.83;;;17.00;93.90;;;;;;5033869;28;20448;-66
2021/07/21 00:08:20;;;;;;;20.83;13.80;;;17.00;93.90;;;;;;5030976;28;20520;-66
2021/07/21 00:10:49;;;;;;;23.23;15.77;;;17.00;94.00;;;;;;5046800;28;20456;-66
2021/07/21 00:13:28;;;;;;;21.77;16.77;;;17.00;94.00;;;;;;5050847;28;20437;-66
2021/07/21 00:16:04;;;;;;;19.70;14.20;;;16.90;94.30;;;;;;5033079;28;20807;-66
2021/07/21 00:18:34;;;;;;;23.27;15.63;;;16.90;94.40;;;;;;5030831;28;20461;-66
2021/07/21 00:21:04;;;;;;;20.70;15.90;;;16.90;94.50;;;;;;5048349;28;20527;-68
2021/07/21 00:23:33;;;;;;;22.53;14.90;;;16.80;94.60;;;;;;5050733;28;20488;-66
2021/07/21 00:26:02;;;;;;;22.80;14.60;;;16.80;94.50;;;;;;5032277;28;20473;-66
2021/07/21 00:28:38;;;;;;;22.03;14.70;;;16.70;94.40;;;;;;5030892;28;20468;-67
2021/07/21 00:31:08;;;;;;;22.00;15.70;;;16.80;94.50;;;;;;5051631;28;20536;-67
2021/07/21 00:33:35;;;;;;;21.80;15.00;;;16.70;94.40;;;;;;5043688;28;20805;-67
2021/07/21 00:36:06;;;;;;;21.40;13.90;;;16.70;94.40;;;;;;5052184;28;20437;-66
2021/07/21 00:38:33;;;;;;;20.73;14.07;;;16.60;94.30;;;;;;5044160;28;20438;-66
2021/07/21 00:41:00;;;;;;;18.80;12.87;;;16.60;94.50;;;;;;5034330;28;20454;-67
2021/07/21 00:43:32;;;;;;;23.90;15.93;;;16.60;94.40;;;;;;5042439;28;20492;-68
2021/07/21 00:45:59;;;;;;;21.17;14.40;;;16.60;94.50;;;;;;5036081;28;20441;-66
2021/07/21 00:48:28;;;;;;;22.47;14.83;;;16.60;94.70;;;;;;5041814;28;20468;-67
2021/07/21 00:50:55;;;;;;;21.90;13.90;;;16.60;94.60;;;;;;5054148;28;20441;-67
2021/07/21 00:53:23;;;;;;;19.70;12.47;;;16.60;94.50;;;;;;5046832;28;20453;-67
2021/07/21 00:55:51;;;;;;;19.07;14.27;;;16.60;94.40;;;;;;5050045;28;20972;-67
2021/07/21 00:58:22;;;;;;;21.13;15.33;;;16.50;94.60;;;;;;5047522;28;20787;-66
2021/07/21 01:00:49;;;;;;;18.23;13.53;;;16.50;94.70;;;;;;5033612;28;20437;-66
2021/07/21 01:03:17;;;;;;;23.33;14.70;;;16.40;94.60;;;;;;5039434;28;20473;-66
2021/07/21 01:05:46;;;;;;;19.13;13.77;;;16.40;94.80;;;;;;5038024;28;20778;-67
2021/07/21 01:08:14;;;;;;;20.67;13.47;;;16.40;94.70;;;;;;5041710;28;20927;-66
2021/07/21 01:10:53;;;;;;;18.60;13.40;;;16.40;94.60;;;;;;5054909;28;20844;-68
2021/07/21 01:13:26;;;;;;;18.83;13.70;;;16.40;94.60;;;;;;5037219;28;20442;-66
2021/07/21 01:15:58;;;;;;;23.60;16.60;;;16.40;94.70;;;;;;5050463;28;20506;-66
2021/07/21 01:18:34;;;;;;;20.47;14.40;;;16.30;94.60;;;;;;5052809;28;20468;-67
2021/07/21 01:21:27;;;;;;;22.90;15.27;;;16.30;94.50;;;;;;5035327;28;20524;-66
2021/07/21 01:24:12;;;;;;;23.50;15.43;;;16.30;94.60;;;;;;5035303;28;20516;-66
2021/07/21 01:26:45;;;;;;;25.13;15.30;;;16.30;94.80;;;;;;5035297;28;20525;-66
2021/07/21 01:29:14;;;;;;;20.83;15.20;;;16.20;94.60;;;;;;5044277;28;20439;-66
2021/07/21 01:31:44;;;;;;;17.40;13.00;;;16.20;95.00;;;;;;5055054;28;20445;-66
2021/07/21 01:34:13;;;;;;;20.20;12.93;;;16.10;95.10;;;;;;5055001;28;20468;-66
2021/07/21 01:36:45;;;;;;;21.67;15.00;;;16.20;94.90;;;;;;5054744;28;20477;-66
2021/07/21 01:39:16;;;;;;;16.40;11.30;;;16.10;94.80;;;;;;5045709;28;20533;-66
2021/07/21 01:41:48;;;;;;;14.33;10.50;;;16.10;94.80;;;;;;5034120;28;20477;-66
2021/07/21 01:44:20;;;;;;;15.80;11.30;;;16.10;94.50;;;;;;5034818;28;20848;-66
2021/07/21 01:47:04;;;;;;;21.50;13.90;;;16.10;94.30;;;;;;5035021;28;20524;-66
2021/07/21 01:49:36;;;;;;;19.33;13.87;;;16.10;94.30;;;;;;5034961;28;20461;-67
2021/07/21 01:52:07;;;;;;;17.97;14.07;;;16.10;94.70;;;;;;5034936;28;20607;-66
2021/07/21 01:54:38;;;;;;;17.03;12.87;;;16.00;95.30;;;;;;5034881;28;20509;-66
2021/07/21 01:57:07;;;;;;;15.33;10.80;;;15.90;95.10;;;;;;5034631;28;20496;-67
2021/07/21 01:59:36;;;;;;;16.13;12.13;;;15.90;95.00;;;;;;5045015;28;20461;-66
2021/07/21 02:02:12;;;;;;;17.97;12.80;;;15.90;94.80;;;;;;5054512;28;20466;-66
2021/07/21 02:04:40;;;;;;;17.73;13.23;;;15.80;94.80;;;;;;5053914;28;20562;-66
2021/07/21 02:07:10;;;;;;;17.70;11.83;;;15.70;95.10;;;;;;5054446;28;20472;-66
2021/07/21 02:09:38;;;;;;;15.30;11.47;;;15.70;95.40;;;;;;5054393;28;20807;-66
2021/07/21 02:12:06;;;;;;;19.00;12.60;;;15.70;95.30;;;;;;5054255;28;20526;-66
2021/07/21 02:14:37;;;;;;;17.60;12.50;;;15.70;94.90;;;;;;5044029;28;20520;-66
2021/07/21 02:17:07;;;;;;;19.23;13.30;;;15.70;94.60;;;;;;5034088;28;20529;-66
2021/07/21 02:19:40;;;;;;;16.37;12.60;;;15.60;94.50;;;;;;5033610;28;20544;-66
2021/07/21 02:22:07;;;;;;;21.00;11.70;;;15.60;94.60;;;;;;5032928;28;20438;-67
2021/07/21 02:24:35;;;;;;;16.20;12.20;;;15.60;94.60;;;;;;5042609;28;20480;-66
2021/07/21 02:27:02;;;;;;;16.77;11.90;;;15.60;94.60;;;;;;5053657;28;20445;-66
2021/07/21 02:29:29;;;;;;;13.20;8.73;;;15.60;94.50;;;;;;5043863;28;20446;-66
2021/07/21 02:32:04;;;;;;;12.73;6.83;;;15.50;94.30;;;;;;5033559;28;20492;-66
2021/07/21 02:34:31;;;;;;;9.93;8.03;;;15.40;94.20;;;;;;5042610;28;20476;-68
2021/07/21 02:36:59;;;;;;;12.63;9.97;;;15.40;94.70;;;;;;5053353;28;20494;-66
2021/07/21 02:39:26;;;;;;;11.90;9.20;;;15.40;94.50;;;;;;5044507;28;20500;-66
2021/07/21 02:41:55;;;;;;;16.07;10.07;;;15.40;94.30;;;;;;5033367;28;20541;-66
2021/07/21 02:44:26;;;;;;;17.50;12.20;;;15.30;94.20;;;;;;5040953;28;20986;-66
2021/07/21 02:46:53;;;;;;;21.97;11.83;;;15.20;94.70;;;;;;5053286;28;20483;-66
2021/07/21 02:49:22;;;;;;;16.30;11.27;;;15.20;94.90;;;;;;5045335;28;20446;-66
2021/07/21 02:51:53;;;;;;;15.20;10.10;;;15.00;95.10;;;;;;5033227;28;20438;-66
2021/07/21 02:54:31;;;;;;;15.73;10.00;;;15.00;95.10;;;;;;5040110;28;20939;-67
2021/07/21 02:57:04;;;;;;;16.50;10.70;;;15.00;95.10;;;;;;5053089;28;20945;-66
2021/07/21 02:59:42;;;;;;;15.00;10.00;;;15.00;94.90;;;;;;5044171;28;20564;-66
2021/07/21 03:02:09;;;;;;;16.87;12.80;;;15.00;94.80;;;;;;5033240;28;20802;-66
2021/07/21 03:04:39;;;;;;;14.57;9.43;;;15.00;94.80;;;;;;5032990;28;20600;-66
2021/07/21 03:07:08;;;;;;;15.97;10.57;;;14.90;94.80;;;;;;5033340;28;20529;-66
2021/07/21 03:09:36;;;;;;;14.27;9.70;;;14.90;95.20;;;;;;5033033;28;20954;-66
2021/07/21 03:12:08;;;;;;;13.33;10.37;;;14.90;95.00;;;;;;5033182;28;20794;-66
2021/07/21 03:14:38;;;;;;;15.30;10.40;;;14.90;95.10;;;;;;5033186;28;20516;-66
2021/07/21 03:17:07;;;;;;;14.77;10.97;;;14.80;95.30;;;;;;5033353;28;20851;-66
2021/07/21 03:19:39;;;;;;;16.97;11.83;;;14.70;95.60;;;;;;5050413;28;20476;-66
2021/07/21 03:22:07;;;;;;;15.80;11.20;;;14.70;95.80;;;;;;5053086;28;20444;-66
2021/07/21 03:24:42;;;;;;;20.03;10.70;;;14.70;96.10;;;;;;5044869;28;20567;-66
2021/07/21 03:27:09;;;;;;;19.00;11.40;;;14.70;96.00;;;;;;5052732;28;20435;-66
2021/07/21 03:29:46;;;;;;;19.67;14.03;;;14.80;95.90;;;;;;5035475;28;20524;-66
2021/07/21 03:32:13;;;;;;;22.73;12.60;;;14.80;95.80;;;;;;5033086;28;20532;-67
2021/07/21 03:34:42;;;;;;;18.77;11.90;;;14.90;95.80;;;;;;5048845;28;20516;-66
2021/07/21 03:37:11;;;;;;;19.50;11.77;;;14.90;95.70;;;;;;5037824;28;20517;-66
2021/07/21 03:39:39;;;;;;;18.23;11.70;;;14.90;95.70;;;;;;5032603;28;20545;-66
2021/07/21 03:42:07;;;;;;;16.70;12.10;;;14.90;95.60;;;;;;5045334;28;20472;-66
2021/07/21 03:44:35;;;;;;;20.00;12.13;;;14.90;95.40;;;;;;5052302;28;20575;-66
2021/07/21 03:47:05;;;;;;;20.20;13.43;;;14.80;95.10;;;;;;5039865;28;20529;-66
2021/07/21 03:49:34;;;;;;;17.03;11.50;;;14.80;94.90;;;;;;5032598;28;20625;-67
2021/07/21 03:52:03;;;;;;;16.10;12.00;;;14.80;94.90;;;;;;5044375;28;20532;-68
2021/07/21 03:54:37;;;;;;;16.90;11.60;;;14.80;94.90;;;;;;5052352;28;20531;-69
2021/07/21 03:57:08;;;;;;;16.50;12.50;;;14.80;94.90;;;;;;5051393;28;20436;-67
2021/07/21 03:59:37;;;;;;;17.50;9.93;;;14.70;95.10;;;;;;5052506;28;20516;-67
2021/07/21 04:02:07;;;;;;;14.87;10.33;;;14.70;95.00;;;;;;5051626;28;20433;-67
2021/07/21 04:04:36;;;;;;;13.53;9.80;;;14.70;94.70;;;;;;5053703;28;20539;-67
2021/07/21 04:07:05;;;;;;;14.70;11.07;;;14.70;94.80;;;;;;5053948;28;20440;-67
2021/07/21 04:09:34;;;;;;;19.37;11.97;;;14.70;94.70;;;;;;5056480;28;20465;-67
2021/07/21 04:12:05;;;;;;;17.57;11.00;;;14.70;95.20;;;;;;5043839;28;20448;-67
2021/07/21 04:14:33;;;;;;;14.17;10.03;;;14.70;94.80;;;;;;5036409;28;20908;-67
2021/07/21 04:17:04;;;;;;;14.27;10.33;;;14.60;94.90;;;;;;5048333;28;20493;-67
2021/07/21 04:19:33;;;;;;;15.47;10.97;;;14.60;95.30;;;;;;5056290;28;20468;-67
2021/07/21 04:22:00;;;;;;;15.17;11.50;;;14.60;95.20;;;;;;5044410;28;20448;-67
2021/07/21 04:24:31;;;;;;;15.77;10.53;;;14.60;95.30;;;;;;5036355;28;20485;-67
2021/07/21 04:26:58;;;;;;;15.83;12.00;;;14.60;95.60;;;;;;5037294;28;20484;-67
2021/07/21 04:29:27;;;;;;;17.70;11.60;;;14.60;96.00;;;;;;5036286;28;20500;-67
2021/07/21 04:31:55;;;;;;;17.50;11.97;;;14.60;96.20;;;;;;5046454;28;20433;-67
2021/07/21 04:34:22;;;;;;;18.13;13.23;;;14.60;96.40;;;;;;5055982;28;20486;-67
2021/07/21 04:36:50;;;;;;;18.23;12.30;;;14.70;96.60;;;;;;5054325;28;20927;-66
2021/07/21 04:39:19;;;;;;;21.43;13.40;;;14.70;96.70;;;;;;5055772;28;20479;-67
2021/07/21 04:41:51;;;;;;;19.20;12.37;;;14.70;96.70;;;;;;5046593;28;20449;-67
2021/07/21 04:44:22;;;;;;;16.77;11.17;;;14.70;96.80;;;;;;5035965;28;20895;-67
2021/07/21 04:46:53;;;;;;;18.30;11.67;;;14.80;96.70;;;;;;5044615;28;20468;-67
2021/07/21 04:49:22;;;;;;;23.37;12.30;;;14.90;96.90;;;;;;5055789;28;20795;-67
2021/07/21 04:51:54;;;;;;;15.33;12.47;;;14.90;96.80;;;;;;5047055;28;20464;-67
2021/07/21 04:54:28;;;;;;;16.77;13.03;;;15.00;96.40;;;;;;5035661;28;20452;-67
2021/07/21 04:56:56;;;;;;;19.60;12.43;;;15.00;96.20;;;;;;5036888;28;20448;-67
2021/07/21 04:59:23;;;;;;;20.90;14.30;;;14.90;96.50;;;;;;5035547;28;20437;-67
2021/07/21 05:01:51;;;;;;;20.10;14.73;;;14.90;96.80;;;;;;5043492;28;21102;-67
2021/07/21 05:04:18;;;;;;;17.77;13.13;;;14.90;96.90;;;;;;5055415;28;20507;-67
2021/07/21 05:06:46;;;;;;;20.53;13.23;;;15.00;97.10;;;;;;5039181;28;20519;-67
2021/07/21 05:09:13;;;;;;;19.37;12.40;;;15.10;97.30;;;;;;5034349;28;20931;-66
2021/07/21 05:11:41;;;;;;;19.23;12.30;;;15.20;97.50;;;;;;5034760;28;20453;-67
2021/07/21 05:14:09;;;;;;;22.50;14.17;;;15.30;97.50;;;;;;5035063;28;20831;-67
2021/07/21 05:16:40;;;;;;;22.00;14.43;;;15.30;97.50;;;;;;5033602;28;20438;-68
2021/07/21 05:19:09;;;;;;;20.73;15.47;;;15.50;97.80;;;;;;5036982;28;20504;-67
2021/07/21 05:21:36;;;;;;;20.17;13.87;;;15.60;97.80;;;;;;5033720;28;20543;-67
2021/07/21 05:24:07;;;;;;;18.27;13.30;;;15.70;97.70;;;;;;5034041;28;20492;-67
2021/07/21 05:26:34;;;;;;;19.53;13.50;;;15.80;97.60;;;;;;5033901;28;20433;-68
2021/07/21 05:29:02;;;;;;;19.73;13.73;;;15.90;97.40;;;;;;5037149;28;20827;-67
2021/07/21 05:31:31;;;;;;;22.73;13.23;;;16.00;97.00;;;;;;5042162;28;20430;-68
2021/07/21 05:34:02;;;;;;;19.97;13.63;;;16.10;96.90;;;;;;5034248;28;20477;-68
2021/07/21 05:36:35;;;;;;;18.87;14.17;;;16.20;96.60;;;;;;5049120;28;20499;-68
2021/07/21 05:39:05;;;;;;;26.40;14.20;;;16.40;96.90;;;;;;5045089;28;20455;-67
2021/07/21 05:41:33;;;;;;;17.70;12.97;;;16.40;96.90;;;;;;5047673;28;20441;-68
2021/07/21 05:44:00;;;;;;;20.43;13.97;;;16.50;96.80;;;;;;5049986;28;20485;-67
2021/07/21 05:46:31;;;;;;;20.20;14.03;;;16.70;96.60;;;;;;5052380;28;20791;-66
2021/07/21 05:49:00;;;;;;;17.50;12.70;;;16.70;96.60;;;;;;5033593;28;20933;-67
2021/07/21 05:51:27;;;;;;;19.70;14.40;;;16.80;96.30;;;;;;5034110;28;20524;-68
2021/07/21 05:53:58;;;;;;;25.30;14.20;;;16.90;96.00;;;;;;5034121;28;20433;-67
2021/07/21 05:56:26;;;;;;;18.10;13.47;;;17.00;96.00;;;;;;5034749;28;20441;-68
2021/07/21 05:58:57;;;;;;;20.50;12.40;;;17.10;96.10;;;;;;5034679;28;20441;-67
2021/07/21 06:01:24;;;;;;;19.67;13.60;;;17.20;95.90;;;;;;5034486;28;20465;-67
2021/07/21 06:03:56;;;;;;;16.37;12.70;;;17.30;96.00;;;;;;5034172;28;20434;-67
2021/07/21 06:06:30;;;;;;;16.27;12.83;;;17.40;95.70;;;;;;5046896;28;20430;-67
2021/07/21 06:08:57;;;;;;;22.70;14.67;;;17.50;95.50;;;;;;5049166;28;20444;-67
2021/07/21 06:11:24;;;;;;;20.63;13.90;;;17.60;95.40;;;;;;5050842;28;20920;-68
2021/07/21 06:13:51;;;;;;;21.53;13.83;;;17.60;95.20;;;;;;5050526;28;20429;-67
2021/07/21 06:16:19;;;;;;;24.73;13.80;;;17.80;95.50;;;;;;5051393;28;20473;-67
2021/07/21 06:18:46;;;;;;;21.47;13.90;;;17.80;95.50;;;;;;5041275;28;21015;-67
2021/07/21 06:21:13;;;;;;;18.00;13.80;;;17.90;95.30;;;;;;5033944;28;20450;-67
2021/07/21 06:23:43;;;;;;;18.00;13.00;;;18.00;95.40;;;;;;5033738;28;20441;-67
2021/07/21 06:26:10;;;;;;;16.30;13.00;;;18.10;94.70;;;;;;5033425;28;20442;-67
2021/07/21 06:28:38;;;;;;;19.57;13.47;;;18.20;94.60;;;;;;5033062;28;20523;-68
2021/07/21 06:31:05;;;;;;;16.20;12.70;;;18.30;94.50;;;;;;5045755;28;21033;-67
2021/07/21 06:33:32;;;;;;;21.30;14.47;;;18.40;94.20;;;;;;5033185;28;20476;-68
2021/07/21 06:35:59;;;;;;;19.10;14.37;;;18.50;94.10;;;;;;5033697;28;20766;-67
2021/07/21 06:38:28;;;;;;;20.57;13.70;;;18.60;94.30;;;;;;5031683;28;20795;-68
2021/07/21 06:40:56;;;;;;;20.63;14.60;;;18.70;94.40;;;;;;5033109;28;20934;-68
2021/07/21 06:43:30;;;;;;;22.23;13.60;;;18.90;94.40;;;;;;5032946;28;20458;-68
2021/07/21 06:46:00;;;;;;;16.40;13.30;;;19.00;94.40;;;;;;5044531;28;20477;-66
2021/07/21 06:48:27;;;;;;;19.40;13.90;;;19.10;94.30;;;;;;5033129;28;20477;-67
2021/07/21 06:50:59;;;;;;;24.13;15.33;;;19.20;94.20;;;;;;5043971;28;20434;-66
2021/07/21 06:53:30;;;;;;;18.97;13.23;;;19.30;94.10;;;;;;5035981;28;20472;-67
2021/07/21 06:55:58;;;;;;;19.50;14.33;;;19.40;94.00;;;;;;5034831;28;20449;-66
2021/07/21 06:58:26;;;;;;;22.80;14.17;;;19.60;93.50;;;;;;5050600;28;20461;-66
2021/07/21 07:00:53;;;;;;;19.63;13.30;;;19.70;93.50;;;;;;5047703;28;20437;-66
2021/07/21 07:03:20;;;;;;;19.10;14.00;;;19.80;93.20;;;;;;5046291;28;20970;-66
2021/07/21 07:05:48;;;;;;;20.93;14.87;;;19.90;93.40;;;;;;5042367;28;20486;-69
2021/07/21 07:08:15;;;;;;;20.00;14.13;;;20.00;93.20;;;;;;5035411;28;20842;-66
2021/07/21 07:10:45;;;;;;;21.20;15.30;;;20.10;92.60;;;;;;5049772;28;20787;-69
2021/07/21 07:13:13;;;;;;;22.07;15.50;;;20.20;92.50;;;;;;5040303;28;20438;-68
2021/07/21 07:15:40;;;;;;;21.40;14.43;;;20.30;92.50;;;;;;5032640;28;20445;-67
2021/07/21 07:18:14;;;;;;;21.97;14.67;;;20.40;92.40;;;;;;5032247;28;20515;-68
2021/07/21 07:20:42;;;;;;;19.07;13.80;;;20.60;92.00;;;;;;5046753;28;20507;-67
2021/07/21 07:23:09;;;;;;;18.57;13.80;;;20.70;89.10;;;;;;5049031;28;20482;-68
2021/07/21 07:25:38;;;;;;;24.77;13.47;;;20.70;90.20;;;;;;5041309;28;20968;-68
2021/07/21 07:28:05;;;;;;;18.33;14.10;;;20.90;90.90;;;;;;5046476;28;20506;-67
2021/07/21 07:30:34;;;;;;;18.37;12.87;;;21.00;91.20;;;;;;5050468;28;20474;-70
2021/07/21 07:33:01;;;;;;;19.73;15.67;;;21.10;90.70;;;;;;5050425;28;20903;-68
2021/07/21 07:35:29;;;;;;;18.53;13.70;;;21.20;91.10;;;;;;5049968;28;20473;-69
2021/07/21 07:37:56;;;;;;;19.40;14.00;;;21.30;91.60;;;;;;5050569;28;20444;-68
2021/07/21 07:40:23;;;;;;;19.20;13.43;;;21.50;91.40;;;;;;5034226;28;20494;-68
2021/07/21 07:42:50;;;;;;;21.27;15.17;;;21.70;91.30;;;;;;5032451;28;20474;-68
2021/07/21 07:45:17;;;;;;;20.40;15.10;;;21.80;90.50;;;;;;5032088;28;20509;-68
2021/07/21 07:47:45;;;;;;;19.33;13.80;;;21.80;89.40;;;;;;5031658;28;20500;-68
2021/07/21 07:50:13;;;;;;;21.97;15.30;;;22.00;89.60;;;;;;5046920;28;20476;-67
2021/07/21 07:52:41;;;;;;;26.30;16.60;;;22.00;88.10;;;;;;5048943;28;20530;-69
2021/07/21 07:55:09;;;;;;;18.20;13.97;;;22.10;87.80;;;;;;5031530;28;20449;-68
2021/07/21 07:57:37;;;;;;;17.53;14.03;;;22.20;86.50;;;;;;5049803;28;21186;-68
2021/07/21 08:00:10;;;;;;;19.30;15.57;;;22.30;86.60;;;;;;5046141;28;20447;-68
2021/07/21 08:02:37;;;;;;;16.07;13.37;;;22.40;85.50;;;;;;5049660;28;20484;-68
2021/07/21 08:05:19;;;;;;;22.10;14.70;;;22.60;85.60;;;;;;5050034;28;20482;-68
2021/07/21 08:07:46;;;;;;;17.57;13.80;;;22.70;86.50;;;;;;5049507;28;20970;-70
2021/07/21 08:10:14;;;;;;;19.27;13.70;;;22.90;85.50;;;;;;5050142;28;20520;-69
2021/07/21 08:12:43;;;;;;;22.03;15.30;;;23.00;86.00;;;;;;5030479;28;20914;-68
2021/07/21 08:15:11;;;;;;;21.17;15.37;;;23.10;86.00;;;;;;5035660;28;20437;-68
2021/07/21 08:17:38;;;;;;;24.67;15.70;;;23.20;85.40;;;;;;5039651;28;20620;-68
2021/07/21 08:20:08;;;;;;;17.53;13.73;;;23.30;86.50;;;;;;5036707;28;20852;-69
2021/07/21 08:22:40;;;;;;;18.63;14.00;;;23.50;87.30;;;;;;5032712;28;20472;-68
2021/07/21 08:25:15;;;;;;;18.40;14.77;;;23.70;87.10;;;;;;5031105;28;21014;-68
2021/07/21 08:27:42;;;;;;;21.83;14.73;;;23.90;86.10;;;;;;5034033;28;20540;-68
2021/07/21 08:30:13;;;;;;;22.93;15.17;;;24.10;85.60;;;;;;5031437;28;20446;-69
2021/07/21 08:32:40;;;;;;;17.77;13.97;;;24.20;84.30;;;;;;5035358;28;20494;-68
2021/07/21 08:35:10;;;;;;;21.73;15.67;;;24.30;83.60;;;;;;5033326;28;20528;-69
2021/07/21 08:37:37;;;;;;;18.83;14.97;;;24.40;79.30;;;;;;5031168;28;20478;-68
2021/07/21 08:40:08;;;;;;;17.33;13.87;;;24.50;80.60;;;;;;5031027;28;20948;-69
2021/07/21 08:42:36;;;;;;;16.67;13.50;;;24.70;80.00;;;;;;5031211;28;20856;-68
2021/07/21 08:45:08;;;;;;;14.07;11.53;;;24.80;81.90;;;;;;5031387;28;20491;-68
2021/07/21 08:47:35;;;;;;;20.43;14.00;;;25.00;79.50;;;;;;5031469;28;20870;-68
2021/07/21 08:50:03;;;;;;;16.30;12.93;;;25.10;78.70;;;;;;5031014;28;20538;-69
2021/07/21 08:52:32;;;;;;;18.43;13.37;;;25.30;71.90;;;;;;5036451;28;20521;-68
2021/07/21 08:54:59;;;;;;;16.47;13.30;;;25.30;70.50;;;;;;5039149;28;20564;-69
2021/07/21 08:57:28;;;;;;;21.60;13.40;;;25.40;70.00;;;;;;5037585;28;20537;-69
2021/07/21 08:59:56;;;;;;;18.47;13.10;;;25.60;68.90;;;;;;5034623;28;20488;-69
2021/07/21 09:02:23;;;;;;;13.53;12.13;;;25.60;68.80;;;;;;5034691;28;20796;-68
2021/07/21 09:04:50;;;;;;;15.67;13.17;;;25.70;66.90;;;;;;5034626;28;21079;-68
2021/07/21 09:07:22;;;;;;;19.13;13.67;;;25.80;64.70;;;;;;5034577;28;20946;-68
2021/07/21 09:09:50;;;;;;;15.20;12.50;;;25.80;68.30;;;;;;5038147;28;20448;-68
2021/07/21 09:12:17;;;;;;;16.40;13.93;;;25.90;68.00;;;;;;5038026;28;20533;-68
2021/07/21 09:14:44;;;;;;;16.13;12.60;;;26.10;70.60;;;;;;5034783;28;20442;-68
2021/07/21 09:17:13;;;;;;;16.87;13.33;;;26.30;70.10;;;;;;5034096;28;20470;-67
2021/07/21 09:19:41;;;;;;;17.23;13.80;;;26.50;68.40;;;;;;5034953;28;20469;-68
2021/07/21 09:22:20;;;;;;;17.47;13.33;;;26.60;69.30;;;;;;5034262;28;20532;-68
2021/07/21 09:25:12;;;;;;;13.83;11.90;;;26.80;69.00;;;;;;5034278;28;20970;-68
2021/07/21 09:27:39;;;;;;;15.67;12.77;;;27.00;68.40;;;;;;5035065;28;20448;-68
2021/07/21 09:30:10;;;;;;;15.57;12.50;;;27.10;64.00;;;;;;5034826;28;20445;-69
2021/07/21 09:33:02;;;;;;;16.73;13.40;;;27.20;62.20;;;;;;5033681;28;20479;-69
2021/07/21 09:35:31;;;;;;;14.17;11.37;;;27.30;61.70;;;;;;5034669;28;20976;-69
2021/07/21 09:38:02;;;;;;;14.77;10.53;;;27.40;60.10;;;;;;5032812;28;20861;-69
2021/07/21 09:40:32;;;;;;;18.17;11.53;;;27.40;60.90;;;;;;5037822;28;20450;-68
2021/07/21 09:43:01;;;;;;;14.70;11.57;;;27.50;61.70;;;;;;5032693;28;20434;-67
2021/07/21 09:45:28;;;;;;;13.27;11.30;;;27.60;59.00;;;;;;5032371;28;20517;-70
2021/07/21 09:48:00;;;;;;;13.23;11.57;;;27.70;58.40;;;;;;5033223;28;20902;-67
2021/07/21 09:50:29;;;;;;;23.90;13.40;;;27.70;56.80;;;;;;5036207;28;20458;-66
2021/07/21 09:53:04;;;;;;;17.20;12.97;;;27.70;57.60;;;;;;5036657;28;20446;-66
2021/07/21 09:55:43;;;;;;;15.60;12.97;;;27.90;59.30;;;;;;5036877;28;20860;-67
2021/07/21 09:58:14;;;;;;;14.40;11.00;;;28.00;57.10;;;;;;5032064;28;20443;-67
2021/07/21 10:00:42;;;;;;;13.07;11.50;;;28.10;57.10;;;;;;5032669;28;21068;-68
2021/07/21 10:03:13;;;;;;;14.40;11.70;;;28.20;57.50;;;;;;5029777;28;21010;-68
2021/07/21 10:05:53;;;;;;;15.77;10.47;;;28.10;54.30;;;;;;5032836;28;20809;-68
2021/07/21 10:08:47;;;;;;;14.03;11.27;;;28.10;55.90;;;;;;5033450;28;20442;-68
2021/07/21 10:11:29;;;;;;;16.37;12.40;;;28.30;57.00;;;;;;5033511;28;20441;-68
2021/07/21 10:14:09;;;;;;;17.47;13.47;;;28.40;52.20;;;;;;5033388;28;20521;-69
2021/07/21 10:16:40;;;;;;;14.90;11.67;;;28.40;52.30;;;;;;5033508;28;20482;-69
2021/07/21 10:19:10;;;;;;;15.87;10.17;;;28.40;53.30;;;;;;5032117;28;20873;-68
2021/07/21 10:21:39;;;;;;;20.90;13.10;;;28.50;55.70;;;;;;5031101;28;20522;-69
2021/07/21 10:24:07;;;;;;;14.67;12.40;;;28.60;55.10;;;;;;5032954;28;20482;-69
2021/07/21 10:26:37;;;;;;;14.07;11.13;;;28.70;52.10;;;;;;5040413;28;20581;-68
2021/07/21 10:29:06;;;;;;;16.10;13.70;;;28.70;53.60;;;;;;5037419;28;20469;-69
2021/07/21 10:31:34;;;;;;;14.47;12.33;;;28.80;52.50;;;;;;5032581;28;20448;-68
2021/07/21 10:34:05;;;;;;;14.33;11.70;;;28.70;49.60;;;;;;5034769;28;20439;-69
2021/07/21 10:36:35;;;;;;;15.67;12.23;;;28.60;51.10;;;;;;5052748;28;20489;-68
2021/07/21 10:39:11;;;;;;;15.17;13.50;;;28.70;53.20;;;;;;5032154;28;20452;-68
2021/07/21 10:41:46;;;;;;;16.00;12.00;;;28.80;54.00;;;;;;5032471;28;20433;-69
2021/07/21 10:44:15;;;;;;;13.80;11.87;;;28.90;52.40;;;;;;5032162;28;20445;-69
2021/07/21 10:46:45;;;;;;;16.00;12.20;;;28.90;51.70;;;;;;5045175;28;20530;-68
2021/07/21 10:49:32;;;;;;;13.23;11.00;;;29.00;49.80;;;;;;5048898;28;20451;-68
2021/07/21 10:52:44;;;;;;;15.27;11.57;;;29.00;51.20;;;;;;5045866;28;20459;-68
2021/07/21 10:55:28;;;;;;;15.77;11.80;;;29.00;50.40;;;;;;5010227;28;20447;-68
2021/07/21 11:00:56;;;;;;;15.17;12.33;;;29.10;52.00;;;;;;5032780;28;20558;-69
2021/07/21 11:03:28;;;;;;;13.83;12.37;;;29.20;52.60;;;;;;5049207;28;20440;-68
2021/07/21 11:06:01;;;;;;;18.30;14.20;;;29.20;51.50;;;;;;5051722;28;20589;-67
2021/07/21 11:08:29;;;;;;;15.17;12.03;;;29.30;52.00;;;;;;5051050;28;20922;-68
2021/07/21 11:10:58;;;;;;;14.70;11.03;;;29.50;52.40;;;;;;5044138;28;20437;-68
2021/07/21 11:13:41;;;;;;;15.70;13.07;;;29.60;51.90;;;;;;5031790;28;20441;-68
2021/07/21 11:16:28;;;;;;;13.33;11.93;;;29.80;51.70;;;;;;5032671;28;20445;-68
2021/07/21 11:18:55;;;;;;;14.77;13.17;;;29.90;51.20;;;;;;5031297;28;21035;-68
2021/07/21 11:21:22;;;;;;;15.50;13.00;;;30.00;49.70;;;;;;5041089;28;20465;-68
2021/07/21 11:24:02;;;;;;;14.27;11.80;;;29.90;48.30;;;;;;5040283;28;20951;-68
2021/07/21 11:26:46;;;;;;;18.07;14.33;;;29.80;48.70;;;;;;5031725;28;20485;-69
2021/07/21 11:29:47;;;;;;;14.20;12.70;;;29.80;48.00;;;;;;5031763;28;20449;-68
2021/07/21 11:32:38;;;;;;;18.57;12.30;;;29.80;49.50;;;;;;5031561;28;20460;-68
2021/07/21 11:35:42;;;;;;;19.60;15.00;;;29.80;47.50;;;;;;5032723;28;20503;-68
2021/07/21 11:38:18;;;;;;;21.80;13.47;;;29.70;47.50;;;;;;5031564;28;21023;-67
2021/07/21 11:40:46;;;;;;;19.63;12.23;;;29.70;46.00;;;;;;5032091;28;20441;-67
2021/07/21 11:43:32;;;;;;;15.53;12.90;;;29.60;46.90;;;;;;5050924;28;20534;-66
2021/07/21 11:46:06;;;;;;;14.47;11.93;;;29.70;48.30;;;;;;5031644;28;20584;-69
2021/07/21 11:48:33;;;;;;;17.00;12.63;;;29.70;49.00;;;;;;5032181;28;20480;-69
2021/07/21 11:51:00;;;;;;;15.73;12.90;;;29.70;48.40;;;;;;5031807;28;20527;-66
2021/07/21 11:53:27;;;;;;;16.77;13.83;;;29.70;44.90;;;;;;5032450;28;20500;-66
2021/07/21 11:55:55;;;;;;;16.70;13.20;;;29.50;46.10;;;;;;5032117;28;20524;-68
2021/07/21 11:58:32;;;;;;;14.90;11.67;;;29.50;47.20;;;;;;5038446;28;20451;-67
2021/07/21 12:01:01;;;;;;;14.27;12.77;;;29.50;49.10;;;;;;5050070;28;20785;-68
2021/07/21 12:03:29;;;;;;;14.70;12.40;;;29.60;49.20;;;;;;5046708;28;20452;-68
2021/07/21 12:05:57;;;;;;;17.00;13.07;;;29.60;49.80;;;;;;5031932;28;20576;-69
2021/07/21 12:08:24;;;;;;;15.60;13.63;;;29.70;47.30;;;;;;5031897;28;20484;-68
2021/07/21 12:10:52;;;;;;;14.47;12.17;;;29.80;48.80;;;;;;5050331;28;20436;-69
2021/07/21 12:13:20;;;;;;;15.23;12.50;;;29.90;48.00;;;;;;5051948;28;20860;-69
2021/07/21 12:15:57;;;;;;;16.70;12.70;;;29.90;48.10;;;;;;5051290;28;20497;-68
2021/07/21 12:18:25;;;;;;;13.10;11.80;;;29.90;48.10;;;;;;5051731;28;20884;-67
2021/07/21 12:20:53;;;;;;;14.60;11.60;;;29.90;48.10;;;;;;5051049;28;20437;-68
2021/07/21 12:23:23;;;;;;;17.97;12.70;;;29.90;47.70;;;;;;5050539;28;20457;-68
2021/07/21 12:25:49;;;;;;;14.13;11.97;;;30.00;47.70;;;;;;5043184;28;20446;-69
2021/07/21 12:28:16;;;;;;;13.97;12.27;;;30.00;47.80;;;;;;5034643;28;20904;-69
2021/07/21 12:30:46;;;;;;;14.77;12.30;;;29.90;47.70;;;;;;5044069;28;20523;-68
2021/07/21 12:33:20;;;;;;;14.33;11.10;;;29.90;47.60;;;;;;5049946;28;20446;-68
2021/07/21 12:35:47;;;;;;;13.77;11.47;;;29.90;47.70;;;;;;5034834;28;20494;-68
2021/07/21 12:38:16;;;;;;;14.77;11.60;;;29.90;47.40;;;;;;5038273;28;20506;-67
2021/07/21 12:40:43;;;;;;;16.13;12.67;;;29.80;47.10;;;;;;5046170;28;20434;-68
2021/07/21 12:43:14;;;;;;;13.90;12.20;;;29.70;47.30;;;;;;5035449;28;20437;-68
2021/07/21 12:45:43;;;;;;;15.47;13.03;;;29.70;47.40;;;;;;5034153;28;20448;-68
2021/07/21 12:48:10;;;;;;;13.43;12.00;;;29.60;47.20;;;;;;5051798;28;20501;-68